sensor_id;sensor_type;location;lat;lon;timestamp;P1;durP1;ratioP1;P2;durP2;ratioP2
30888;SDS011;51092;50.874;7.024;2022-07-06T00:00:56;10.80;;;2.38;;
30888;SDS011;51092;50.874;7.024;2022-07-06T00:01:58;7.63;;;2.85;;
30888;SDS011;51092;50.874;7.024;2022-07-06T00:03:00;8.88;;;2.28;;
30888;SDS011;51092;50.874;7.024;2022-07-06T00:04:02;4.53;;;2.05;;
30888;SDS011;51092;50.874;7.024;2022-07-06T00:05:05;6.43;;;2.15;;
30888;SDS011;51092;50.874;7.024;2022-07-06T00:06:07;5.35;;;2.72;;
30888;SDS011;51092;50.874;7.024;2022-07-06T00:07:10;10.30;;;3.22;;
30888;SDS011;51092;50.874;7.024;2022-07-06T00:08:11;4.00;;;2.40;;
30888;SDS011;51092;50.874;7.024;2022-07-06T00:09:14;5.82;;;2.08;;
30888;SDS011;51092;50.874;7.024;2022-07-06T00:10:15;4.97;;;1.98;;
30888;SDS011;51092;50.874;7.024;2022-07-06T00:11:18;3.17;;;1.90;;
30888;SDS011;51092;50.874;7.024;2022-07-06T00:12:19;3.75;;;1.70;;
30888;SDS011;51092;50.874;7.024;2022-07-06T00:13:22;5.88;;;1.85;;
30888;SDS011;51092;50.874;7.024;2022-07-06T00:14:24;6.18;;;2.03;;
30888;SDS011;51092;50.874;7.024;2022-07-06T00:15:27;6.75;;;2.50;;
30888;SDS011;51092;50.874;7.024;2022-07-06T00:16:29;5.40;;;2.10;;
30888;SDS011;51092;50.874;7.024;2022-07-06T00:17:32;6.97;;;2.13;;
30888;SDS011;51092;50.874;7.024;2022-07-06T00:18:33;3.67;;;1.95;;
30888;SDS011;51092;50.874;7.024;2022-07-06T00:19:36;5.18;;;2.05;;
30888;SDS011;51092;50.874;7.024;2022-07-06T00:20:37;4.75;;;2.05;;
30888;SDS011;51092;50.874;7.024;2022-07-06T00:21:40;5.35;;;2.20;;
30888;SDS011;51092;50.874;7.024;2022-07-06T00:22:42;6.00;;;2.65;;
30888;SDS011;51092;50.874;7.024;2022-07-06T00:23:44;8.70;;;2.13;;
30888;SDS011;51092;50.874;7.024;2022-07-06T00:24:46;5.70;;;2.30;;
30888;SDS011;51092;50.874;7.024;2022-07-06T00:25:48;5.05;;;2.30;;
30888;SDS011;51092;50.874;7.024;2022-07-06T00:26:50;2.78;;;1.70;;
30888;SDS011;51092;50.874;7.024;2022-07-06T00:27:52;3.88;;;1.70;;
30888;SDS011;51092;50.874;7.024;2022-07-06T00:28:54;4.90;;;2.25;;
30888;SDS011;51092;50.874;7.024;2022-07-06T00:29:56;6.13;;;2.20;;
30888;SDS011;51092;50.874;7.024;2022-07-06T00:31:00;5.25;;;2.83;;
30888;SDS011;51092;50.874;7.024;2022-07-06T00:32:02;5.85;;;2.40;;
30888;SDS011;51092;50.874;7.024;2022-07-06T00:33:05;7.47;;;2.78;;
30888;SDS011;51092;50.874;7.024;2022-07-06T00:34:07;10.05;;;2.45;;
30888;SDS011;51092;50.874;7.024;2022-07-06T00:35:10;6.95;;;2.63;;
30888;SDS011;51092;50.874;7.024;2022-07-06T00:36:11;8.48;;;2.30;;
30888;SDS011;51092;50.874;7.024;2022-07-06T00:37:14;5.38;;;2.40;;
30888;SDS011;51092;50.874;7.024;2022-07-06T00:38:16;4.75;;;2.35;;
30888;SDS011;51092;50.874;7.024;2022-07-06T00:39:18;5.15;;;2.05;;
30888;SDS011;51092;50.874;7.024;2022-07-06T00:40:21;7.85;;;2.28;;
30888;SDS011;51092;50.874;7.024;2022-07-06T00:41:23;9.57;;;2.33;;
30888;SDS011;51092;50.874;7.024;2022-07-06T00:42:25;3.90;;;1.80;;
30888;SDS011;51092;50.874;7.024;2022-07-06T00:43:27;7.70;;;2.08;;
30888;SDS011;51092;50.874;7.024;2022-07-06T00:44:29;6.50;;;2.22;;
30888;SDS011;51092;50.874;7.024;2022-07-06T00:45:33;6.22;;;2.35;;
30888;SDS011;51092;50.874;7.024;2022-07-06T00:46:36;9.35;;;2.25;;
30888;SDS011;51092;50.874;7.024;2022-07-06T00:47:41;4.40;;;2.05;;
30888;SDS011;51092;50.874;7.024;2022-07-06T00:48:43;7.68;;;2.80;;
30888;SDS011;51092;50.874;7.024;2022-07-06T00:49:46;8.60;;;2.55;;
30888;SDS011;51092;50.874;7.024;2022-07-06T00:51:06;5.93;;;2.55;;
30888;SDS011;51092;50.874;7.024;2022-07-06T00:52:08;5.45;;;2.58;;
30888;SDS011;51092;50.874;7.024;2022-07-06T00:53:11;8.68;;;3.28;;
30888;SDS011;51092;50.874;7.024;2022-07-06T00:54:15;8.70;;;2.53;;
30888;SDS011;51092;50.874;7.024;2022-07-06T00:55:17;5.40;;;2.60;;
30888;SDS011;51092;50.874;7.024;2022-07-06T00:56:20;9.30;;;2.80;;
30888;SDS011;51092;50.874;7.024;2022-07-06T00:57:22;7.35;;;2.40;;
30888;SDS011;51092;50.874;7.024;2022-07-06T00:58:25;5.88;;;2.35;;
30888;SDS011;51092;50.874;7.024;2022-07-06T00:59:27;5.57;;;2.40;;
30888;SDS011;51092;50.874;7.024;2022-07-06T01:00:30;5.22;;;2.65;;
30888;SDS011;51092;50.874;7.024;2022-07-06T01:01:32;4.95;;;2.30;;
30888;SDS011;51092;50.874;7.024;2022-07-06T01:02:36;7.05;;;2.40;;
30888;SDS011;51092;50.874;7.024;2022-07-06T01:03:38;8.85;;;2.13;;
30888;SDS011;51092;50.874;7.024;2022-07-06T01:04:40;6.13;;;2.40;;
30888;SDS011;51092;50.874;7.024;2022-07-06T01:05:42;7.70;;;2.40;;
30888;SDS011;51092;50.874;7.024;2022-07-06T01:06:45;5.10;;;2.50;;
30888;SDS011;51092;50.874;7.024;2022-07-06T01:07:47;8.02;;;2.83;;
30888;SDS011;51092;50.874;7.024;2022-07-06T01:08:50;6.43;;;2.92;;
30888;SDS011;51092;50.874;7.024;2022-07-06T01:09:52;8.15;;;2.63;;
30888;SDS011;51092;50.874;7.024;2022-07-06T01:10:54;11.05;;;3.08;;
30888;SDS011;51092;50.874;7.024;2022-07-06T01:11:57;5.88;;;2.55;;
30888;SDS011;51092;50.874;7.024;2022-07-06T01:12:59;5.38;;;2.45;;
30888;SDS011;51092;50.874;7.024;2022-07-06T01:14:01;8.05;;;2.50;;
30888;SDS011;51092;50.874;7.024;2022-07-06T01:15:03;6.30;;;2.50;;
30888;SDS011;51092;50.874;7.024;2022-07-06T01:16:08;7.28;;;2.85;;
30888;SDS011;51092;50.874;7.024;2022-07-06T01:17:09;4.90;;;2.70;;
30888;SDS011;51092;50.874;7.024;2022-07-06T01:18:13;6.78;;;2.85;;
30888;SDS011;51092;50.874;7.024;2022-07-06T01:19:16;4.38;;;2.60;;
30888;SDS011;51092;50.874;7.024;2022-07-06T01:20:20;5.18;;;3.10;;
30888;SDS011;51092;50.874;7.024;2022-07-06T01:21:23;8.27;;;3.05;;
30888;SDS011;51092;50.874;7.024;2022-07-06T01:22:24;4.03;;;2.38;;
30888;SDS011;51092;50.874;7.024;2022-07-06T01:23:27;4.65;;;3.22;;
30888;SDS011;51092;50.874;7.024;2022-07-06T01:24:28;11.30;;;2.78;;
30888;SDS011;51092;50.874;7.024;2022-07-06T01:25:31;3.63;;;2.63;;
30888;SDS011;51092;50.874;7.024;2022-07-06T01:26:33;7.53;;;2.80;;
30888;SDS011;51092;50.874;7.024;2022-07-06T01:27:36;5.03;;;2.92;;
30888;SDS011;51092;50.874;7.024;2022-07-06T01:28:39;6.05;;;2.58;;
30888;SDS011;51092;50.874;7.024;2022-07-06T01:29:42;9.82;;;2.97;;
30888;SDS011;51092;50.874;7.024;2022-07-06T01:30:43;6.75;;;2.90;;
30888;SDS011;51092;50.874;7.024;2022-07-06T01:31:46;8.73;;;2.80;;
30888;SDS011;51092;50.874;7.024;2022-07-06T01:32:50;7.00;;;3.03;;
30888;SDS011;51092;50.874;7.024;2022-07-06T01:33:54;6.47;;;3.25;;
30888;SDS011;51092;50.874;7.024;2022-07-06T01:34:57;8.95;;;3.05;;
30888;SDS011;51092;50.874;7.024;2022-07-06T01:36:01;8.75;;;2.65;;
30888;SDS011;51092;50.874;7.024;2022-07-06T01:37:02;8.77;;;2.83;;
30888;SDS011;51092;50.874;7.024;2022-07-06T01:38:05;5.32;;;2.40;;
30888;SDS011;51092;50.874;7.024;2022-07-06T01:39:08;5.00;;;3.10;;
30888;SDS011;51092;50.874;7.024;2022-07-06T01:40:10;7.78;;;2.80;;
30888;SDS011;51092;50.874;7.024;2022-07-06T01:41:14;3.72;;;2.40;;
30888;SDS011;51092;50.874;7.024;2022-07-06T01:42:16;4.82;;;2.75;;
30888;SDS011;51092;50.874;7.024;2022-07-06T01:43:18;4.32;;;2.83;;
30888;SDS011;51092;50.874;7.024;2022-07-06T01:44:21;4.35;;;3.13;;
30888;SDS011;51092;50.874;7.024;2022-07-06T01:45:22;4.50;;;3.00;;
30888;SDS011;51092;50.874;7.024;2022-07-06T01:46:26;6.95;;;3.35;;
30888;SDS011;51092;50.874;7.024;2022-07-06T01:47:28;11.30;;;3.75;;
30888;SDS011;51092;50.874;7.024;2022-07-06T01:48:30;5.55;;;3.05;;
30888;SDS011;51092;50.874;7.024;2022-07-06T01:49:32;5.88;;;2.35;;
30888;SDS011;51092;50.874;7.024;2022-07-06T01:50:34;5.53;;;3.28;;
30888;SDS011;51092;50.874;7.024;2022-07-06T01:51:37;5.38;;;3.60;;
30888;SDS011;51092;50.874;7.024;2022-07-06T01:52:40;5.82;;;3.00;;
30888;SDS011;51092;50.874;7.024;2022-07-06T01:53:42;10.27;;;3.28;;
30888;SDS011;51092;50.874;7.024;2022-07-06T01:54:45;3.35;;;2.45;;
30888;SDS011;51092;50.874;7.024;2022-07-06T01:55:47;6.57;;;3.15;;
30888;SDS011;51092;50.874;7.024;2022-07-06T01:56:50;7.13;;;3.10;;
30888;SDS011;51092;50.874;7.024;2022-07-06T01:57:51;7.25;;;3.33;;
30888;SDS011;51092;50.874;7.024;2022-07-06T01:58:53;5.60;;;3.58;;
30888;SDS011;51092;50.874;7.024;2022-07-06T01:59:55;9.20;;;3.33;;
30888;SDS011;51092;50.874;7.024;2022-07-06T02:00:59;6.25;;;3.22;;
30888;SDS011;51092;50.874;7.024;2022-07-06T02:02:00;7.18;;;3.42;;
30888;SDS011;51092;50.874;7.024;2022-07-06T02:03:03;6.00;;;3.47;;
30888;SDS011;51092;50.874;7.024;2022-07-06T02:04:04;4.53;;;3.22;;
30888;SDS011;51092;50.874;7.024;2022-07-06T02:05:07;4.63;;;2.90;;
30888;SDS011;51092;50.874;7.024;2022-07-06T02:06:10;8.60;;;3.95;;
30888;SDS011;51092;50.874;7.024;2022-07-06T02:07:14;5.55;;;3.42;;
30888;SDS011;51092;50.874;7.024;2022-07-06T02:08:15;8.95;;;3.80;;
30888;SDS011;51092;50.874;7.024;2022-07-06T02:09:18;8.73;;;3.53;;
30888;SDS011;51092;50.874;7.024;2022-07-06T02:10:20;7.78;;;3.45;;
30888;SDS011;51092;50.874;7.024;2022-07-06T02:11:22;5.85;;;3.33;;
30888;SDS011;51092;50.874;7.024;2022-07-06T02:12:24;8.13;;;3.17;;
30888;SDS011;51092;50.874;7.024;2022-07-06T02:13:26;4.72;;;3.65;;
30888;SDS011;51092;50.874;7.024;2022-07-06T02:14:28;8.77;;;3.63;;
30888;SDS011;51092;50.874;7.024;2022-07-06T02:15:30;6.85;;;3.47;;
30888;SDS011;51092;50.874;7.024;2022-07-06T02:16:33;12.45;;;3.72;;
30888;SDS011;51092;50.874;7.024;2022-07-06T02:17:35;5.72;;;4.47;;
30888;SDS011;51092;50.874;7.024;2022-07-06T02:18:38;4.50;;;3.25;;
30888;SDS011;51092;50.874;7.024;2022-07-06T02:19:39;5.18;;;3.40;;
30888;SDS011;51092;50.874;7.024;2022-07-06T02:20:42;8.98;;;3.83;;
30888;SDS011;51092;50.874;7.024;2022-07-06T02:21:43;7.90;;;4.05;;
30888;SDS011;51092;50.874;7.024;2022-07-06T02:22:47;10.30;;;4.10;;
30888;SDS011;51092;50.874;7.024;2022-07-06T02:23:49;7.65;;;3.50;;
30888;SDS011;51092;50.874;7.024;2022-07-06T02:24:51;7.28;;;4.05;;
30888;SDS011;51092;50.874;7.024;2022-07-06T02:25:52;3.88;;;3.05;;
30888;SDS011;51092;50.874;7.024;2022-07-06T02:26:54;7.13;;;3.92;;
30888;SDS011;51092;50.874;7.024;2022-07-06T02:27:56;6.63;;;3.20;;
30888;SDS011;51092;50.874;7.024;2022-07-06T02:28:58;8.70;;;4.00;;
30888;SDS011;51092;50.874;7.024;2022-07-06T02:30:00;7.55;;;3.72;;
30888;SDS011;51092;50.874;7.024;2022-07-06T02:31:02;5.55;;;4.10;;
30888;SDS011;51092;50.874;7.024;2022-07-06T02:32:04;8.18;;;4.00;;
30888;SDS011;51092;50.874;7.024;2022-07-06T02:33:07;15.00;;;4.10;;
30888;SDS011;51092;50.874;7.024;2022-07-06T02:34:08;6.10;;;3.40;;
30888;SDS011;51092;50.874;7.024;2022-07-06T02:35:11;5.03;;;3.65;;
30888;SDS011;51092;50.874;7.024;2022-07-06T02:36:12;5.95;;;3.75;;
30888;SDS011;51092;50.874;7.024;2022-07-06T02:37:15;10.57;;;3.75;;
30888;SDS011;51092;50.874;7.024;2022-07-06T02:38:18;6.38;;;3.83;;
30888;SDS011;51092;50.874;7.024;2022-07-06T02:39:20;6.82;;;3.83;;
30888;SDS011;51092;50.874;7.024;2022-07-06T02:40:22;6.15;;;3.60;;
30888;SDS011;51092;50.874;7.024;2022-07-06T02:41:24;7.75;;;3.75;;
30888;SDS011;51092;50.874;7.024;2022-07-06T02:42:26;9.73;;;3.95;;
30888;SDS011;51092;50.874;7.024;2022-07-06T02:43:28;6.32;;;3.70;;
30888;SDS011;51092;50.874;7.024;2022-07-06T02:44:30;8.40;;;3.90;;
30888;SDS011;51092;50.874;7.024;2022-07-06T02:45:32;10.20;;;4.15;;
30888;SDS011;51092;50.874;7.024;2022-07-06T02:46:34;8.60;;;3.92;;
30888;SDS011;51092;50.874;7.024;2022-07-06T02:47:36;6.07;;;3.30;;
30888;SDS011;51092;50.874;7.024;2022-07-06T02:48:38;10.55;;;4.10;;
30888;SDS011;51092;50.874;7.024;2022-07-06T02:49:41;8.30;;;3.78;;
30888;SDS011;51092;50.874;7.024;2022-07-06T02:50:42;10.70;;;4.03;;
30888;SDS011;51092;50.874;7.024;2022-07-06T02:51:45;5.05;;;4.05;;
30888;SDS011;51092;50.874;7.024;2022-07-06T02:52:46;14.45;;;5.20;;
30888;SDS011;51092;50.874;7.024;2022-07-06T02:53:50;5.22;;;3.47;;
30888;SDS011;51092;50.874;7.024;2022-07-06T02:54:52;4.82;;;3.35;;
30888;SDS011;51092;50.874;7.024;2022-07-06T02:55:55;6.93;;;4.00;;
30888;SDS011;51092;50.874;7.024;2022-07-06T02:56:56;7.65;;;3.78;;
30888;SDS011;51092;50.874;7.024;2022-07-06T02:57:59;8.50;;;4.00;;
30888;SDS011;51092;50.874;7.024;2022-07-06T02:59:00;7.00;;;3.90;;
30888;SDS011;51092;50.874;7.024;2022-07-06T03:00:03;4.93;;;3.38;;
30888;SDS011;51092;50.874;7.024;2022-07-06T03:01:08;9.13;;;3.97;;
30888;SDS011;51092;50.874;7.024;2022-07-06T03:02:11;6.03;;;4.05;;
30888;SDS011;51092;50.874;7.024;2022-07-06T03:03:12;7.35;;;3.95;;
30888;SDS011;51092;50.874;7.024;2022-07-06T03:04:15;4.75;;;3.50;;
30888;SDS011;51092;50.874;7.024;2022-07-06T03:05:16;4.65;;;3.80;;
30888;SDS011;51092;50.874;7.024;2022-07-06T03:06:19;9.73;;;4.30;;
30888;SDS011;51092;50.874;7.024;2022-07-06T03:07:20;6.22;;;3.80;;
30888;SDS011;51092;50.874;7.024;2022-07-06T03:08:23;8.55;;;3.95;;
30888;SDS011;51092;50.874;7.024;2022-07-06T03:09:26;8.38;;;3.95;;
30888;SDS011;51092;50.874;7.024;2022-07-06T03:10:29;5.78;;;3.53;;
30888;SDS011;51092;50.874;7.024;2022-07-06T03:11:30;9.50;;;3.70;;
30888;SDS011;51092;50.874;7.024;2022-07-06T03:12:36;10.73;;;4.40;;
30888;SDS011;51092;50.874;7.024;2022-07-06T03:13:38;6.00;;;4.07;;
30888;SDS011;51092;50.874;7.024;2022-07-06T03:14:40;8.63;;;3.58;;
30888;SDS011;51092;50.874;7.024;2022-07-06T03:15:42;11.75;;;3.97;;
30888;SDS011;51092;50.874;7.024;2022-07-06T03:16:44;6.35;;;3.92;;
30888;SDS011;51092;50.874;7.024;2022-07-06T03:17:46;8.95;;;4.10;;
30888;SDS011;51092;50.874;7.024;2022-07-06T03:18:49;6.22;;;3.72;;
30888;SDS011;51092;50.874;7.024;2022-07-06T03:19:50;6.72;;;3.47;;
30888;SDS011;51092;50.874;7.024;2022-07-06T03:20:53;4.45;;;3.70;;
30888;SDS011;51092;50.874;7.024;2022-07-06T03:21:54;4.35;;;3.72;;
30888;SDS011;51092;50.874;7.024;2022-07-06T03:22:57;9.23;;;4.15;;
30888;SDS011;51092;50.874;7.024;2022-07-06T03:23:59;7.28;;;3.17;;
30888;SDS011;51092;50.874;7.024;2022-07-06T03:25:02;5.25;;;3.40;;
30888;SDS011;51092;50.874;7.024;2022-07-06T03:26:05;9.15;;;3.70;;
30888;SDS011;51092;50.874;7.024;2022-07-06T03:27:07;6.93;;;3.45;;
30888;SDS011;51092;50.874;7.024;2022-07-06T03:28:09;5.28;;;2.92;;
30888;SDS011;51092;50.874;7.024;2022-07-06T03:29:11;9.18;;;4.13;;
30888;SDS011;51092;50.874;7.024;2022-07-06T03:30:14;6.70;;;4.25;;
30888;SDS011;51092;50.874;7.024;2022-07-06T03:31:15;7.03;;;3.63;;
30888;SDS011;51092;50.874;7.024;2022-07-06T03:32:18;5.90;;;3.55;;
30888;SDS011;51092;50.874;7.024;2022-07-06T03:33:19;7.72;;;3.45;;
30888;SDS011;51092;50.874;7.024;2022-07-06T03:34:22;5.97;;;3.78;;
30888;SDS011;51092;50.874;7.024;2022-07-06T03:35:23;6.75;;;3.72;;
30888;SDS011;51092;50.874;7.024;2022-07-06T03:36:26;9.25;;;3.80;;
30888;SDS011;51092;50.874;7.024;2022-07-06T03:37:28;9.32;;;4.18;;
30888;SDS011;51092;50.874;7.024;2022-07-06T03:38:30;4.60;;;3.05;;
30888;SDS011;51092;50.874;7.024;2022-07-06T03:39:33;10.38;;;3.60;;
30888;SDS011;51092;50.874;7.024;2022-07-06T03:40:36;5.88;;;3.17;;
30888;SDS011;51092;50.874;7.024;2022-07-06T03:41:38;11.68;;;4.18;;
30888;SDS011;51092;50.874;7.024;2022-07-06T03:42:39;6.07;;;3.67;;
30888;SDS011;51092;50.874;7.024;2022-07-06T03:43:41;9.77;;;3.75;;
30888;SDS011;51092;50.874;7.024;2022-07-06T03:44:43;7.38;;;3.80;;
30888;SDS011;51092;50.874;7.024;2022-07-06T03:45:45;6.60;;;3.80;;
30888;SDS011;51092;50.874;7.024;2022-07-06T03:46:47;9.35;;;4.22;;
30888;SDS011;51092;50.874;7.024;2022-07-06T03:47:50;5.38;;;3.58;;
30888;SDS011;51092;50.874;7.024;2022-07-06T03:48:52;7.82;;;3.20;;
30888;SDS011;51092;50.874;7.024;2022-07-06T03:49:54;5.85;;;3.78;;
30888;SDS011;51092;50.874;7.024;2022-07-06T03:50:56;8.55;;;3.63;;
30888;SDS011;51092;50.874;7.024;2022-07-06T03:51:58;9.70;;;3.90;;
30888;SDS011;51092;50.874;7.024;2022-07-06T03:53:00;10.48;;;3.60;;
30888;SDS011;51092;50.874;7.024;2022-07-06T03:54:03;7.95;;;3.90;;
30888;SDS011;51092;50.874;7.024;2022-07-06T03:55:05;6.35;;;3.67;;
30888;SDS011;51092;50.874;7.024;2022-07-06T03:56:11;9.45;;;3.90;;
30888;SDS011;51092;50.874;7.024;2022-07-06T03:57:30;9.73;;;3.47;;
30888;SDS011;51092;50.874;7.024;2022-07-06T03:58:33;8.10;;;3.60;;
30888;SDS011;51092;50.874;7.024;2022-07-06T03:59:35;7.60;;;3.40;;
30888;SDS011;51092;50.874;7.024;2022-07-06T04:00:37;4.50;;;3.65;;
30888;SDS011;51092;50.874;7.024;2022-07-06T04:01:39;7.68;;;3.83;;
30888;SDS011;51092;50.874;7.024;2022-07-06T04:02:42;6.32;;;3.97;;
30888;SDS011;51092;50.874;7.024;2022-07-06T04:03:44;8.88;;;3.67;;
30888;SDS011;51092;50.874;7.024;2022-07-06T04:04:46;7.30;;;3.70;;
30888;SDS011;51092;50.874;7.024;2022-07-06T04:05:48;7.03;;;4.13;;
30888;SDS011;51092;50.874;7.024;2022-07-06T04:06:50;5.00;;;3.88;;
30888;SDS011;51092;50.874;7.024;2022-07-06T04:07:52;5.53;;;3.72;;
30888;SDS011;51092;50.874;7.024;2022-07-06T04:08:54;7.75;;;3.97;;
30888;SDS011;51092;50.874;7.024;2022-07-06T04:09:56;11.32;;;4.40;;
30888;SDS011;51092;50.874;7.024;2022-07-06T04:10:58;10.57;;;4.05;;
30888;SDS011;51092;50.874;7.024;2022-07-06T04:12:01;7.88;;;4.43;;
30888;SDS011;51092;50.874;7.024;2022-07-06T04:13:04;8.10;;;4.53;;
30888;SDS011;51092;50.874;7.024;2022-07-06T04:14:10;8.57;;;4.03;;
30888;SDS011;51092;50.874;7.024;2022-07-06T04:15:12;11.07;;;4.18;;
30888;SDS011;51092;50.874;7.024;2022-07-06T04:16:14;6.22;;;3.53;;
30888;SDS011;51092;50.874;7.024;2022-07-06T04:17:17;8.02;;;3.92;;
30888;SDS011;51092;50.874;7.024;2022-07-06T04:18:51;7.32;;;3.75;;
30888;SDS011;51092;50.874;7.024;2022-07-06T04:19:54;5.43;;;3.30;;
30888;SDS011;51092;50.874;7.024;2022-07-06T04:20:55;10.63;;;4.53;;
30888;SDS011;51092;50.874;7.024;2022-07-06T04:21:58;6.32;;;4.38;;
30888;SDS011;51092;50.874;7.024;2022-07-06T04:23:00;11.13;;;3.70;;
30888;SDS011;51092;50.874;7.024;2022-07-06T04:24:03;6.35;;;3.65;;
30888;SDS011;51092;50.874;7.024;2022-07-06T04:25:05;11.18;;;4.13;;
30888;SDS011;51092;50.874;7.024;2022-07-06T04:26:08;6.05;;;3.63;;
30888;SDS011;51092;50.874;7.024;2022-07-06T04:27:23;8.45;;;4.70;;
30888;SDS011;51092;50.874;7.024;2022-07-06T04:28:26;9.00;;;3.80;;
30888;SDS011;51092;50.874;7.024;2022-07-06T04:29:27;14.30;;;3.90;;
30888;SDS011;51092;50.874;7.024;2022-07-06T04:30:30;8.30;;;4.38;;
30888;SDS011;51092;50.874;7.024;2022-07-06T04:31:31;8.65;;;3.95;;
30888;SDS011;51092;50.874;7.024;2022-07-06T04:32:34;5.68;;;3.45;;
30888;SDS011;51092;50.874;7.024;2022-07-06T04:33:36;8.77;;;3.97;;
30888;SDS011;51092;50.874;7.024;2022-07-06T04:34:38;6.57;;;3.80;;
30888;SDS011;51092;50.874;7.024;2022-07-06T04:35:40;9.50;;;4.28;;
30888;SDS011;51092;50.874;7.024;2022-07-06T04:36:42;9.35;;;3.80;;
30888;SDS011;51092;50.874;7.024;2022-07-06T04:37:44;7.20;;;4.13;;
30888;SDS011;51092;50.874;7.024;2022-07-06T04:38:47;8.35;;;4.10;;
30888;SDS011;51092;50.874;7.024;2022-07-06T04:39:50;11.02;;;4.00;;
30888;SDS011;51092;50.874;7.024;2022-07-06T04:40:51;8.48;;;4.53;;
30888;SDS011;51092;50.874;7.024;2022-07-06T04:41:54;8.65;;;4.00;;
30888;SDS011;51092;50.874;7.024;2022-07-06T04:42:56;8.60;;;3.80;;
30888;SDS011;51092;50.874;7.024;2022-07-06T04:43:59;6.95;;;3.65;;
30888;SDS011;51092;50.874;7.024;2022-07-06T04:45:01;9.90;;;4.13;;
30888;SDS011;51092;50.874;7.024;2022-07-06T04:46:04;6.93;;;4.13;;
30888;SDS011;51092;50.874;7.024;2022-07-06T04:47:06;9.60;;;3.95;;
30888;SDS011;51092;50.874;7.024;2022-07-06T04:48:09;8.45;;;4.35;;
30888;SDS011;51092;50.874;7.024;2022-07-06T04:49:10;9.23;;;4.78;;
30888;SDS011;51092;50.874;7.024;2022-07-06T04:50:13;7.93;;;3.80;;
30888;SDS011;51092;50.874;7.024;2022-07-06T04:51:14;8.65;;;4.25;;
30888;SDS011;51092;50.874;7.024;2022-07-06T04:52:17;9.85;;;4.05;;
30888;SDS011;51092;50.874;7.024;2022-07-06T04:53:18;9.68;;;4.20;;
30888;SDS011;51092;50.874;7.024;2022-07-06T04:54:21;8.45;;;5.00;;
30888;SDS011;51092;50.874;7.024;2022-07-06T04:55:23;6.68;;;4.43;;
30888;SDS011;51092;50.874;7.024;2022-07-06T04:56:25;7.95;;;4.65;;
30888;SDS011;51092;50.874;7.024;2022-07-06T04:57:27;7.55;;;4.90;;
30888;SDS011;51092;50.874;7.024;2022-07-06T04:58:31;7.43;;;4.05;;
30888;SDS011;51092;50.874;7.024;2022-07-06T04:59:34;8.50;;;4.50;;
30888;SDS011;51092;50.874;7.024;2022-07-06T05:00:35;11.25;;;5.07;;
30888;SDS011;51092;50.874;7.024;2022-07-06T05:01:38;9.73;;;4.57;;
30888;SDS011;51092;50.874;7.024;2022-07-06T05:02:39;9.25;;;4.50;;
30888;SDS011;51092;50.874;7.024;2022-07-06T05:03:42;10.77;;;4.82;;
30888;SDS011;51092;50.874;7.024;2022-07-06T05:04:43;12.40;;;4.38;;
30888;SDS011;51092;50.874;7.024;2022-07-06T05:05:46;8.70;;;5.15;;
30888;SDS011;51092;50.874;7.024;2022-07-06T05:06:47;8.30;;;4.25;;
30888;SDS011;51092;50.874;7.024;2022-07-06T05:07:50;9.68;;;4.90;;
30888;SDS011;51092;50.874;7.024;2022-07-06T05:08:51;13.40;;;4.72;;
30888;SDS011;51092;50.874;7.024;2022-07-06T05:09:54;7.85;;;4.07;;
30888;SDS011;51092;50.874;7.024;2022-07-06T05:10:55;7.20;;;4.93;;
30888;SDS011;51092;50.874;7.024;2022-07-06T05:11:58;11.30;;;4.90;;
30888;SDS011;51092;50.874;7.024;2022-07-06T05:13:00;10.93;;;4.80;;
30888;SDS011;51092;50.874;7.024;2022-07-06T05:14:04;7.63;;;4.85;;
30888;SDS011;51092;50.874;7.024;2022-07-06T05:15:06;7.05;;;3.90;;
30888;SDS011;51092;50.874;7.024;2022-07-06T05:16:09;7.43;;;4.43;;
30888;SDS011;51092;50.874;7.024;2022-07-06T05:17:11;14.32;;;5.30;;
30888;SDS011;51092;50.874;7.024;2022-07-06T05:18:13;6.85;;;4.30;;
30888;SDS011;51092;50.874;7.024;2022-07-06T05:19:16;9.18;;;4.40;;
30888;SDS011;51092;50.874;7.024;2022-07-06T05:20:17;9.95;;;5.28;;
30888;SDS011;51092;50.874;7.024;2022-07-06T05:21:20;7.50;;;4.20;;
30888;SDS011;51092;50.874;7.024;2022-07-06T05:22:22;13.02;;;5.30;;
30888;SDS011;51092;50.874;7.024;2022-07-06T05:23:25;7.63;;;4.63;;
30888;SDS011;51092;50.874;7.024;2022-07-06T05:24:27;11.02;;;4.90;;
30888;SDS011;51092;50.874;7.024;2022-07-06T05:25:30;7.80;;;4.28;;
30888;SDS011;51092;50.874;7.024;2022-07-06T05:26:33;10.98;;;4.38;;
30888;SDS011;51092;50.874;7.024;2022-07-06T05:27:35;8.48;;;4.20;;
30888;SDS011;51092;50.874;7.024;2022-07-06T05:28:37;12.68;;;4.60;;
30888;SDS011;51092;50.874;7.024;2022-07-06T05:29:41;11.63;;;4.72;;
30888;SDS011;51092;50.874;7.024;2022-07-06T05:30:43;8.90;;;4.10;;
30888;SDS011;51092;50.874;7.024;2022-07-06T05:31:45;7.00;;;3.88;;
30888;SDS011;51092;50.874;7.024;2022-07-06T05:32:47;9.77;;;4.22;;
30888;SDS011;51092;50.874;7.024;2022-07-06T05:33:49;9.70;;;3.63;;
30888;SDS011;51092;50.874;7.024;2022-07-06T05:34:51;9.63;;;4.68;;
30888;SDS011;51092;50.874;7.024;2022-07-06T05:35:53;10.73;;;3.97;;
30888;SDS011;51092;50.874;7.024;2022-07-06T05:36:55;11.85;;;4.50;;
30888;SDS011;51092;50.874;7.024;2022-07-06T05:37:57;8.45;;;4.28;;
30888;SDS011;51092;50.874;7.024;2022-07-06T05:38:59;8.65;;;4.13;;
30888;SDS011;51092;50.874;7.024;2022-07-06T05:40:01;7.45;;;3.72;;
30888;SDS011;51092;50.874;7.024;2022-07-06T05:41:03;5.15;;;3.50;;
30888;SDS011;51092;50.874;7.024;2022-07-06T05:42:06;8.63;;;4.57;;
30888;SDS011;51092;50.874;7.024;2022-07-06T05:43:07;8.57;;;4.32;;
30888;SDS011;51092;50.874;7.024;2022-07-06T05:44:10;13.13;;;4.22;;
30888;SDS011;51092;50.874;7.024;2022-07-06T05:45:13;8.48;;;3.70;;
30888;SDS011;51092;50.874;7.024;2022-07-06T05:46:15;5.72;;;3.38;;
30888;SDS011;51092;50.874;7.024;2022-07-06T05:47:17;7.13;;;3.15;;
30888;SDS011;51092;50.874;7.024;2022-07-06T05:48:37;10.52;;;4.28;;
30888;SDS011;51092;50.874;7.024;2022-07-06T05:49:57;9.95;;;3.55;;
30888;SDS011;51092;50.874;7.024;2022-07-06T05:51:14;8.32;;;3.75;;
30888;SDS011;51092;50.874;7.024;2022-07-06T05:52:17;6.68;;;3.97;;
30888;SDS011;51092;50.874;7.024;2022-07-06T05:53:19;9.90;;;4.03;;
30888;SDS011;51092;50.874;7.024;2022-07-06T05:54:21;7.10;;;3.70;;
30888;SDS011;51092;50.874;7.024;2022-07-06T05:55:23;6.85;;;4.28;;
30888;SDS011;51092;50.874;7.024;2022-07-06T05:56:24;8.40;;;4.15;;
30888;SDS011;51092;50.874;7.024;2022-07-06T05:57:26;10.90;;;4.50;;
30888;SDS011;51092;50.874;7.024;2022-07-06T05:58:27;5.22;;;3.60;;
30888;SDS011;51092;50.874;7.024;2022-07-06T05:59:29;8.25;;;3.75;;
30888;SDS011;51092;50.874;7.024;2022-07-06T06:00:32;13.10;;;4.13;;
30888;SDS011;51092;50.874;7.024;2022-07-06T06:01:35;9.65;;;4.57;;
30888;SDS011;51092;50.874;7.024;2022-07-06T06:02:36;21.42;;;4.75;;
30888;SDS011;51092;50.874;7.024;2022-07-06T06:03:38;6.60;;;3.40;;
30888;SDS011;51092;50.874;7.024;2022-07-06T06:04:41;8.18;;;3.80;;
30888;SDS011;51092;50.874;7.024;2022-07-06T06:05:42;7.30;;;3.40;;
30888;SDS011;51092;50.874;7.024;2022-07-06T06:06:45;10.40;;;3.03;;
30888;SDS011;51092;50.874;7.024;2022-07-06T06:07:46;12.30;;;3.72;;
30888;SDS011;51092;50.874;7.024;2022-07-06T06:08:51;11.45;;;3.33;;
30888;SDS011;51092;50.874;7.024;2022-07-06T06:09:54;9.23;;;3.20;;
30888;SDS011;51092;50.874;7.024;2022-07-06T06:10:55;8.02;;;3.20;;
30888;SDS011;51092;50.874;7.024;2022-07-06T06:11:58;7.70;;;3.28;;
30888;SDS011;51092;50.874;7.024;2022-07-06T06:12:59;6.15;;;2.67;;
30888;SDS011;51092;50.874;7.024;2022-07-06T06:14:02;5.75;;;2.50;;
30888;SDS011;51092;50.874;7.024;2022-07-06T06:15:05;9.50;;;2.25;;
30888;SDS011;51092;50.874;7.024;2022-07-06T06:16:10;4.82;;;2.40;;
30888;SDS011;51092;50.874;7.024;2022-07-06T06:17:12;10.13;;;2.58;;